sensor_id;sensor_type;location;lat;lon;timestamp;P1;durP1;ratioP1;P2;durP2;ratioP2
2105;SDS011;1059;52.548;13.408;2022-10-31T06:18:51;21.83;;;15.60;;
2105;SDS011;1059;52.548;13.408;2022-10-31T06:21:18;20.10;;;14.07;;
2105;SDS011;1059;52.548;13.408;2022-10-31T06:23:45;19.30;;;14.23;;
2105;SDS011;1059;52.548;13.408;2022-10-31T06:26:12;17.27;;;14.50;;
2105;SDS011;1059;52.548;13.408;2022-10-31T06:28:39;24.00;;;16.90;;
2105;SDS011;1059;52.548;13.408;2022-10-31T06:31:06;26.03;;;14.73;;
2105;SDS011;1059;52.548;13.408;2022-10-31T06:33:33;21.50;;;13.23;;
2105;SDS011;1059;52.548;13.408;2022-10-31T06:36:02;17.20;;;14.73;;
2105;SDS011;1059;52.548;13.408;2022-10-31T06:38:29;18.93;;;14.37;;
2105;SDS011;1059;52.548;13.408;2022-10-31T06:40:56;20.20;;;14.30;;
2105;SDS011;1059;52.548;13.408;2022-10-31T06:43:23;19.97;;;13.63;;
2105;SDS011;1059;52.548;13.408;2022-10-31T06:45:50;20.00;;;14.30;;
2105;SDS011;1059;52.548;13.408;2022-10-31T06:48:17;24.00;;;13.43;;
2105;SDS011;1059;52.548;13.408;2022-10-31T06:50:44;21.33;;;13.70;;
2105;SDS011;1059;52.548;13.408;2022-10-31T06:53:12;29.47;;;15.50;;
2105;SDS011;1059;52.548;13.408;2022-10-31T06:55:40;24.30;;;15.37;;
2105;SDS011;1059;52.548;13.408;2022-10-31T06:58:08;22.17;;;15.20;;
2105;SDS011;1059;52.548;13.408;2022-10-31T07:00:36;20.70;;;14.93;;
2105;SDS011;1059;52.548;13.408;2022-10-31T07:03:03;17.23;;;14.60;;
2105;SDS011;1059;52.548;13.408;2022-10-31T07:05:32;21.87;;;14.57;;
2105;SDS011;1059;52.548;13.408;2022-10-31T07:07:59;20.33;;;14.50;;
2105;SDS011;1059;52.548;13.408;2022-10-31T07:10:29;19.83;;;14.83;;
2105;SDS011;1059;52.548;13.408;2022-10-31T07:12:57;23.27;;;15.07;;
2105;SDS011;1059;52.548;13.408;2022-10-31T07:15:25;21.10;;;14.53;;
2105;SDS011;1059;52.548;13.408;2022-10-31T07:17:58;22.40;;;14.87;;
2105;SDS011;1059;52.548;13.408;2022-10-31T07:20:26;20.23;;;14.00;;
2105;SDS011;1059;52.548;13.408;2022-10-31T07:22:53;19.40;;;14.50;;
2105;SDS011;1059;52.548;13.408;2022-10-31T07:25:20;30.50;;;13.70;;
2105;SDS011;1059;52.548;13.408;2022-10-31T07:27:49;23.03;;;14.83;;
2105;SDS011;1059;52.548;13.408;2022-10-31T07:30:16;20.10;;;14.10;;
2105;SDS011;1059;52.548;13.408;2022-10-31T07:32:45;19.93;;;14.00;;
2105;SDS011;1059;52.548;13.408;2022-10-31T07:35:13;23.30;;;14.10;;
2105;SDS011;1059;52.548;13.408;2022-10-31T07:37:42;22.90;;;14.50;;
2105;SDS011;1059;52.548;13.408;2022-10-31T07:40:09;19.33;;;14.00;;
2105;SDS011;1059;52.548;13.408;2022-10-31T07:42:37;18.30;;;14.50;;
2105;SDS011;1059;52.548;13.408;2022-10-31T07:45:08;22.10;;;14.47;;
2105;SDS011;1059;52.548;13.408;2022-10-31T07:47:38;24.00;;;14.47;;
2105;SDS011;1059;52.548;13.408;2022-10-31T07:50:06;24.03;;;15.30;;
2105;SDS011;1059;52.548;13.408;2022-10-31T07:52:33;26.77;;;16.20;;
2105;SDS011;1059;52.548;13.408;2022-10-31T07:55:00;25.63;;;16.30;;
2105;SDS011;1059;52.548;13.408;2022-10-31T07:57:27;20.23;;;15.50;;
2105;SDS011;1059;52.548;13.408;2022-10-31T07:59:54;23.07;;;14.93;;
2105;SDS011;1059;52.548;13.408;2022-10-31T08:02:23;21.60;;;14.37;;
2105;SDS011;1059;52.548;13.408;2022-10-31T08:04:50;23.77;;;15.40;;
2105;SDS011;1059;52.548;13.408;2022-10-31T08:07:17;23.33;;;15.50;;
2105;SDS011;1059;52.548;13.408;2022-10-31T08:09:44;26.00;;;16.57;;
2105;SDS011;1059;52.548;13.408;2022-10-31T08:12:11;23.80;;;16.40;;
2105;SDS011;1059;52.548;13.408;2022-10-31T08:14:38;20.90;;;15.97;;
2105;SDS011;1059;52.548;13.408;2022-10-31T08:17:05;25.40;;;16.70;;
2105;SDS011;1059;52.548;13.408;2022-10-31T08:19:33;23.30;;;15.93;;
2105;SDS011;1059;52.548;13.408;2022-10-31T08:22:00;19.57;;;15.87;;
2105;SDS011;1059;52.548;13.408;2022-10-31T08:24:27;22.30;;;16.00;;
2105;SDS011;1059;52.548;13.408;2022-10-31T08:26:54;23.27;;;15.90;;
2105;SDS011;1059;52.548;13.408;2022-10-31T08:29:21;24.10;;;16.70;;
2105;SDS011;1059;52.548;13.408;2022-10-31T08:31:47;28.03;;;16.37;;
2105;SDS011;1059;52.548;13.408;2022-10-31T08:34:14;26.63;;;16.70;;
2105;SDS011;1059;52.548;13.408;2022-10-31T08:36:43;26.10;;;16.93;;
2105;SDS011;1059;52.548;13.408;2022-10-31T08:39:12;23.07;;;16.53;;
2105;SDS011;1059;52.548;13.408;2022-10-31T08:41:39;25.20;;;16.53;;
2105;SDS011;1059;52.548;13.408;2022-10-31T08:44:06;22.70;;;17.47;;
2105;SDS011;1059;52.548;13.408;2022-10-31T08:46:33;28.93;;;16.80;;
2105;SDS011;1059;52.548;13.408;2022-10-31T08:49:00;30.93;;;17.30;;
2105;SDS011;1059;52.548;13.408;2022-10-31T08:51:27;23.33;;;16.00;;
2105;SDS011;1059;52.548;13.408;2022-10-31T08:53:56;26.20;;;17.17;;
2105;SDS011;1059;52.548;13.408;2022-10-31T08:56:23;29.30;;;19.10;;
2105;SDS011;1059;52.548;13.408;2022-10-31T08:58:52;26.33;;;19.27;;
2105;SDS011;1059;52.548;13.408;2022-10-31T09:01:19;22.30;;;17.23;;
2105;SDS011;1059;52.548;13.408;2022-10-31T09:03:46;27.40;;;17.00;;
2105;SDS011;1059;52.548;13.408;2022-10-31T09:06:13;25.37;;;16.97;;
2105;SDS011;1059;52.548;13.408;2022-10-31T09:08:40;20.90;;;16.03;;
2105;SDS011;1059;52.548;13.408;2022-10-31T09:11:08;23.57;;;18.30;;
2105;SDS011;1059;52.548;13.408;2022-10-31T09:13:35;24.57;;;17.60;;
2105;SDS011;1059;52.548;13.408;2022-10-31T09:16:02;22.17;;;18.83;;
2105;SDS011;1059;52.548;13.408;2022-10-31T09:18:29;30.87;;;18.00;;
2105;SDS011;1059;52.548;13.408;2022-10-31T09:20:57;31.80;;;20.27;;
2105;SDS011;1059;52.548;13.408;2022-10-31T09:23:25;26.53;;;18.13;;
2105;SDS011;1059;52.548;13.408;2022-10-31T09:25:52;26.17;;;19.13;;
2105;SDS011;1059;52.548;13.408;2022-10-31T09:28:22;25.37;;;18.67;;
2105;SDS011;1059;52.548;13.408;2022-10-31T09:30:50;26.50;;;18.73;;
2105;SDS011;1059;52.548;13.408;2022-10-31T09:33:19;27.80;;;18.83;;
2105;SDS011;1059;52.548;13.408;2022-10-31T09:35:46;24.53;;;17.70;;
2105;SDS011;1059;52.548;13.408;2022-10-31T09:38:14;24.20;;;18.10;;
2105;SDS011;1059;52.548;13.408;2022-10-31T09:40:44;24.23;;;18.30;;
2105;SDS011;1059;52.548;13.408;2022-10-31T09:43:14;32.00;;;19.23;;
2105;SDS011;1059;52.548;13.408;2022-10-31T09:45:50;27.80;;;20.07;;
2105;SDS011;1059;52.548;13.408;2022-10-31T09:48:28;30.30;;;19.30;;
2105;SDS011;1059;52.548;13.408;2022-10-31T09:51:07;30.97;;;22.07;;
2105;SDS011;1059;52.548;13.408;2022-10-31T09:53:38;30.30;;;20.20;;
2105;SDS011;1059;52.548;13.408;2022-10-31T09:56:09;30.97;;;20.50;;
2105;SDS011;1059;52.548;13.408;2022-10-31T09:58:40;31.90;;;19.90;;
2105;SDS011;1059;52.548;13.408;2022-10-31T10:01:17;30.30;;;20.47;;
2105;SDS011;1059;52.548;13.408;2022-10-31T10:03:57;30.33;;;19.70;;
2105;SDS011;1059;52.548;13.408;2022-10-31T10:06:28;31.50;;;22.33;;
2105;SDS011;1059;52.548;13.408;2022-10-31T10:08:59;31.43;;;20.70;;
2105;SDS011;1059;52.548;13.408;2022-10-31T10:11:31;32.53;;;21.17;;
2105;SDS011;1059;52.548;13.408;2022-10-31T10:14:08;34.17;;;20.60;;
2105;SDS011;1059;52.548;13.408;2022-10-31T10:16:48;21.60;;;18.23;;
2105;SDS011;1059;52.548;13.408;2022-10-31T10:19:28;32.90;;;20.00;;
2105;SDS011;1059;52.548;13.408;2022-10-31T10:22:15;28.83;;;21.80;;
2105;SDS011;1059;52.548;13.408;2022-10-31T10:24:58;25.20;;;19.70;;
2105;SDS011;1059;52.548;13.408;2022-10-31T10:27:34;30.70;;;19.67;;
2105;SDS011;1059;52.548;13.408;2022-10-31T10:30:11;26.40;;;20.07;;
2105;SDS011;1059;52.548;13.408;2022-10-31T10:32:43;25.37;;;20.20;;
2105;SDS011;1059;52.548;13.408;2022-10-31T10:35:22;28.90;;;20.37;;
2105;SDS011;1059;52.548;13.408;2022-10-31T10:37:52;25.23;;;18.60;;
2105;SDS011;1059;52.548;13.408;2022-10-31T10:40:25;31.37;;;19.83;;
2105;SDS011;1059;52.548;13.408;2022-10-31T10:42:55;28.00;;;21.10;;
2105;SDS011;1059;52.548;13.408;2022-10-31T10:45:49;34.33;;;20.93;;
2105;SDS011;1059;52.548;13.408;2022-10-31T10:48:45;27.57;;;19.00;;
2105;SDS011;1059;52.548;13.408;2022-10-31T10:51:21;37.13;;;19.73;;
2105;SDS011;1059;52.548;13.408;2022-10-31T10:54:01;24.13;;;18.77;;
2105;SDS011;1059;52.548;13.408;2022-10-31T10:56:49;30.70;;;19.43;;
2105;SDS011;1059;52.548;13.408;2022-10-31T10:59:21;25.97;;;19.50;;
2105;SDS011;1059;52.548;13.408;2022-10-31T11:01:50;31.87;;;20.23;;
2105;SDS011;1059;52.548;13.408;2022-10-31T11:04:31;31.47;;;20.50;;
2105;SDS011;1059;52.548;13.408;2022-10-31T11:06:59;30.40;;;20.57;;
2105;SDS011;1059;52.548;13.408;2022-10-31T11:09:27;29.10;;;18.70;;
2105;SDS011;1059;52.548;13.408;2022-10-31T11:11:55;26.00;;;19.60;;
2105;SDS011;1059;52.548;13.408;2022-10-31T11:14:22;27.53;;;19.87;;
2105;SDS011;1059;52.548;13.408;2022-10-31T11:16:50;27.00;;;18.10;;
2105;SDS011;1059;52.548;13.408;2022-10-31T11:19:21;25.37;;;19.17;;
2105;SDS011;1059;52.548;13.408;2022-10-31T11:21:51;31.30;;;21.20;;
2105;SDS011;1059;52.548;13.408;2022-10-31T11:24:19;33.97;;;19.90;;
2105;SDS011;1059;52.548;13.408;2022-10-31T11:26:48;27.43;;;20.97;;
2105;SDS011;1059;52.548;13.408;2022-10-31T11:29:19;30.73;;;20.20;;
2105;SDS011;1059;52.548;13.408;2022-10-31T11:31:48;30.13;;;21.97;;
2105;SDS011;1059;52.548;13.408;2022-10-31T11:34:21;23.47;;;19.07;;
2105;SDS011;1059;52.548;13.408;2022-10-31T11:36:55;30.30;;;20.73;;
2105;SDS011;1059;52.548;13.408;2022-10-31T11:39:27;29.03;;;20.00;;
2105;SDS011;1059;52.548;13.408;2022-10-31T11:41:55;30.73;;;18.70;;
2105;SDS011;1059;52.548;13.408;2022-10-31T11:44:30;26.30;;;18.80;;
2105;SDS011;1059;52.548;13.408;2022-10-31T11:47:03;30.10;;;18.63;;
2105;SDS011;1059;52.548;13.408;2022-10-31T11:49:35;28.43;;;19.47;;
2105;SDS011;1059;52.548;13.408;2022-10-31T11:52:07;33.60;;;19.67;;
2105;SDS011;1059;52.548;13.408;2022-10-31T11:54:41;28.83;;;18.23;;
2105;SDS011;1059;52.548;13.408;2022-10-31T12:00:37;25.40;;;17.57;;
2105;SDS011;1059;52.548;13.408;2022-10-31T12:03:25;27.70;;;17.30;;
2105;SDS011;1059;52.548;13.408;2022-10-31T12:06:00;23.73;;;17.30;;
2105;SDS011;1059;52.548;13.408;2022-10-31T12:08:33;23.03;;;16.50;;
2105;SDS011;1059;52.548;13.408;2022-10-31T12:11:03;23.53;;;18.47;;
2105;SDS011;1059;52.548;13.408;2022-10-31T12:13:37;24.03;;;17.17;;
2105;SDS011;1059;52.548;13.408;2022-10-31T12:16:16;23.50;;;18.00;;
2105;SDS011;1059;52.548;13.408;2022-10-31T12:18:50;23.60;;;18.50;;
2105;SDS011;1059;52.548;13.408;2022-10-31T12:21:27;25.63;;;17.70;;
2105;SDS011;1059;52.548;13.408;2022-10-31T12:24:08;26.07;;;18.80;;
2105;SDS011;1059;52.548;13.408;2022-10-31T12:26:47;23.60;;;18.30;;
2105;SDS011;1059;52.548;13.408;2022-10-31T12:29:26;19.73;;;15.80;;
2105;SDS011;1059;52.548;13.408;2022-10-31T12:32:14;27.23;;;17.10;;
2105;SDS011;1059;52.548;13.408;2022-10-31T12:34:54;30.53;;;16.93;;
2105;SDS011;1059;52.548;13.408;2022-10-31T12:37:38;19.37;;;16.30;;
2105;SDS011;1059;52.548;13.408;2022-10-31T12:40:25;22.00;;;16.87;;
2105;SDS011;1059;52.548;13.408;2022-10-31T12:43:12;23.40;;;16.57;;
2105;SDS011;1059;52.548;13.408;2022-10-31T12:45:51;26.93;;;17.43;;
2105;SDS011;1059;52.548;13.408;2022-10-31T12:48:34;28.10;;;17.53;;
2105;SDS011;1059;52.548;13.408;2022-10-31T12:51:21;21.40;;;16.27;;
2105;SDS011;1059;52.548;13.408;2022-10-31T12:54:10;22.40;;;15.30;;
2105;SDS011;1059;52.548;13.408;2022-10-31T12:56:50;28.03;;;16.80;;
2105;SDS011;1059;52.548;13.408;2022-10-31T12:59:27;20.23;;;15.97;;
2105;SDS011;1059;52.548;13.408;2022-10-31T13:01:59;21.67;;;17.17;;
2105;SDS011;1059;52.548;13.408;2022-10-31T13:04:35;19.97;;;16.07;;
2105;SDS011;1059;52.548;13.408;2022-10-31T13:07:08;21.80;;;15.90;;
2105;SDS011;1059;52.548;13.408;2022-10-31T13:09:41;23.60;;;15.97;;
2105;SDS011;1059;52.548;13.408;2022-10-31T13:12:15;22.03;;;17.10;;
2105;SDS011;1059;52.548;13.408;2022-10-31T13:14:46;19.70;;;17.37;;
2105;SDS011;1059;52.548;13.408;2022-10-31T13:17:19;31.43;;;17.17;;
2105;SDS011;1059;52.548;13.408;2022-10-31T13:19:51;22.13;;;15.10;;
2105;SDS011;1059;52.548;13.408;2022-10-31T13:22:29;26.57;;;16.67;;
2105;SDS011;1059;52.548;13.408;2022-10-31T13:25:02;23.80;;;17.03;;
2105;SDS011;1059;52.548;13.408;2022-10-31T13:27:41;25.73;;;21.20;;
2105;SDS011;1059;52.548;13.408;2022-10-31T13:30:12;22.30;;;17.73;;
2105;SDS011;1059;52.548;13.408;2022-10-31T13:32:53;21.07;;;18.07;;
2105;SDS011;1059;52.548;13.408;2022-10-31T13:35:26;22.03;;;16.23;;
2105;SDS011;1059;52.548;13.408;2022-10-31T13:38:02;22.70;;;15.93;;
2105;SDS011;1059;52.548;13.408;2022-10-31T13:40:43;23.87;;;17.63;;
2105;SDS011;1059;52.548;13.408;2022-10-31T13:43:20;24.90;;;16.87;;
2105;SDS011;1059;52.548;13.408;2022-10-31T13:45:54;25.00;;;16.67;;
2105;SDS011;1059;52.548;13.408;2022-10-31T13:48:35;22.93;;;16.90;;
2105;SDS011;1059;52.548;13.408;2022-10-31T13:51:07;22.33;;;17.20;;
2105;SDS011;1059;52.548;13.408;2022-10-31T13:53:36;27.40;;;19.50;;
2105;SDS011;1059;52.548;13.408;2022-10-31T13:56:11;25.00;;;18.03;;
2105;SDS011;1059;52.548;13.408;2022-10-31T13:58:53;21.93;;;17.70;;
2105;SDS011;1059;52.548;13.408;2022-10-31T14:01:26;22.10;;;17.60;;
2105;SDS011;1059;52.548;13.408;2022-10-31T14:03:59;29.37;;;18.17;;
2105;SDS011;1059;52.548;13.408;2022-10-31T14:06:36;23.53;;;16.73;;
2105;SDS011;1059;52.548;13.408;2022-10-31T14:09:15;22.00;;;17.87;;
2105;SDS011;1059;52.548;13.408;2022-10-31T14:11:45;27.83;;;19.80;;
2105;SDS011;1059;52.548;13.408;2022-10-31T14:14:15;29.10;;;19.07;;
2105;SDS011;1059;52.548;13.408;2022-10-31T14:16:43;25.50;;;22.03;;
2105;SDS011;1059;52.548;13.408;2022-10-31T14:19:15;28.10;;;21.73;;
2105;SDS011;1059;52.548;13.408;2022-10-31T14:21:45;34.33;;;22.83;;
2105;SDS011;1059;52.548;13.408;2022-10-31T14:24:13;32.07;;;23.43;;
2105;SDS011;1059;52.548;13.408;2022-10-31T14:26:51;26.23;;;22.07;;
2105;SDS011;1059;52.548;13.408;2022-10-31T14:29:22;29.13;;;22.47;;
2105;SDS011;1059;52.548;13.408;2022-10-31T14:31:52;32.73;;;23.07;;
2105;SDS011;1059;52.548;13.408;2022-10-31T14:34:22;32.97;;;25.10;;
2105;SDS011;1059;52.548;13.408;2022-10-31T14:36:58;34.13;;;24.73;;
2105;SDS011;1059;52.548;13.408;2022-10-31T14:39:36;30.03;;;24.40;;
2105;SDS011;1059;52.548;13.408;2022-10-31T14:42:19;39.47;;;30.47;;
2105;SDS011;1059;52.548;13.408;2022-10-31T14:45:14;41.10;;;30.20;;
2105;SDS011;1059;52.548;13.408;2022-10-31T14:47:51;33.33;;;26.63;;
2105;SDS011;1059;52.548;13.408;2022-10-31T14:50:31;33.40;;;25.43;;
2105;SDS011;1059;52.548;13.408;2022-10-31T14:53:04;35.97;;;27.40;;
2105;SDS011;1059;52.548;13.408;2022-10-31T14:55:33;39.03;;;27.53;;
2105;SDS011;1059;52.548;13.408;2022-10-31T14:58:03;39.13;;;26.87;;
2105;SDS011;1059;52.548;13.408;2022-10-31T15:00:34;36.37;;;27.13;;
2105;SDS011;1059;52.548;13.408;2022-10-31T15:03:04;39.70;;;28.37;;
2105;SDS011;1059;52.548;13.408;2022-10-31T15:05:41;35.90;;;27.13;;
2105;SDS011;1059;52.548;13.408;2022-10-31T15:08:13;44.20;;;26.37;;
2105;SDS011;1059;52.548;13.408;2022-10-31T15:10:57;40.70;;;30.80;;
2105;SDS011;1059;52.548;13.408;2022-10-31T15:13:24;41.57;;;29.37;;
2105;SDS011;1059;52.548;13.408;2022-10-31T15:15:54;55.40;;;36.47;;
2105;SDS011;1059;52.548;13.408;2022-10-31T15:18:23;47.27;;;33.50;;
2105;SDS011;1059;52.548;13.408;2022-10-31T15:20:52;38.47;;;29.30;;
2105;SDS011;1059;52.548;13.408;2022-10-31T15:23:21;42.70;;;30.20;;
2105;SDS011;1059;52.548;13.408;2022-10-31T15:25:49;44.43;;;32.80;;
2105;SDS011;1059;52.548;13.408;2022-10-31T15:28:21;47.30;;;33.33;;
2105;SDS011;1059;52.548;13.408;2022-10-31T15:30:50;46.47;;;32.20;;
2105;SDS011;1059;52.548;13.408;2022-10-31T15:33:21;43.60;;;32.30;;
2105;SDS011;1059;52.548;13.408;2022-10-31T15:35:56;46.90;;;32.90;;
2105;SDS011;1059;52.548;13.408;2022-10-31T15:38:24;48.53;;;32.93;;
2105;SDS011;1059;52.548;13.408;2022-10-31T15:40:52;55.70;;;35.70;;
2105;SDS011;1059;52.548;13.408;2022-10-31T15:43:21;52.83;;;32.80;;
2105;SDS011;1059;52.548;13.408;2022-10-31T15:45:48;50.23;;;35.03;;
2105;SDS011;1059;52.548;13.408;2022-10-31T15:48:17;47.37;;;33.97;;
2105;SDS011;1059;52.548;13.408;2022-10-31T15:50:48;55.00;;;33.03;;
2105;SDS011;1059;52.548;13.408;2022-10-31T15:53:18;51.70;;;34.73;;
2105;SDS011;1059;52.548;13.408;2022-10-31T15:55:50;48.53;;;34.53;;
2105;SDS011;1059;52.548;13.408;2022-10-31T15:58:19;49.93;;;34.17;;
2105;SDS011;1059;52.548;13.408;2022-10-31T16:00:56;49.07;;;32.50;;
2105;SDS011;1059;52.548;13.408;2022-10-31T16:03:26;45.67;;;32.73;;
2105;SDS011;1059;52.548;13.408;2022-10-31T16:05:55;57.70;;;35.50;;
2105;SDS011;1059;52.548;13.408;2022-10-31T16:08:24;52.80;;;35.30;;
2105;SDS011;1059;52.548;13.408;2022-10-31T16:10:57;51.30;;;35.30;;
2105;SDS011;1059;52.548;13.408;2022-10-31T16:13:26;55.47;;;36.90;;
2105;SDS011;1059;52.548;13.408;2022-10-31T16:15:56;53.13;;;34.47;;
2105;SDS011;1059;52.548;13.408;2022-10-31T16:18:27;51.93;;;33.97;;
2105;SDS011;1059;52.548;13.408;2022-10-31T16:21:02;53.23;;;34.07;;
2105;SDS011;1059;52.548;13.408;2022-10-31T16:23:29;47.43;;;33.23;;
2105;SDS011;1059;52.548;13.408;2022-10-31T16:25:56;49.63;;;34.50;;
2105;SDS011;1059;52.548;13.408;2022-10-31T16:28:26;50.73;;;33.40;;
2105;SDS011;1059;52.548;13.408;2022-10-31T16:30:54;51.07;;;34.77;;
2105;SDS011;1059;52.548;13.408;2022-10-31T16:33:24;55.20;;;36.27;;
2105;SDS011;1059;52.548;13.408;2022-10-31T16:35:54;55.93;;;34.07;;
2105;SDS011;1059;52.548;13.408;2022-10-31T16:38:22;49.00;;;34.90;;
2105;SDS011;1059;52.548;13.408;2022-10-31T16:40:49;51.53;;;36.27;;
2105;SDS011;1059;52.548;13.408;2022-10-31T16:43:17;52.90;;;34.77;;
2105;SDS011;1059;52.548;13.408;2022-10-31T16:45:47;58.53;;;36.60;;
2105;SDS011;1059;52.548;13.408;2022-10-31T16:48:17;53.83;;;36.93;;
2105;SDS011;1059;52.548;13.408;2022-10-31T16:50:48;56.20;;;35.33;;
2105;SDS011;1059;52.548;13.408;2022-10-31T16:53:18;55.50;;;35.80;;
2105;SDS011;1059;52.548;13.408;2022-10-31T16:55:46;71.10;;;41.90;;
2105;SDS011;1059;52.548;13.408;2022-10-31T16:58:23;63.30;;;42.20;;
2105;SDS011;1059;52.548;13.408;2022-10-31T17:00:55;61.23;;;38.80;;
2105;SDS011;1059;52.548;13.408;2022-10-31T17:03:22;67.57;;;40.97;;
2105;SDS011;1059;52.548;13.408;2022-10-31T17:05:50;67.70;;;40.67;;
2105;SDS011;1059;52.548;13.408;2022-10-31T17:08:20;73.67;;;40.90;;
2105;SDS011;1059;52.548;13.408;2022-10-31T17:10:47;64.20;;;42.10;;
2105;SDS011;1059;52.548;13.408;2022-10-31T17:13:18;69.27;;;40.77;;
2105;SDS011;1059;52.548;13.408;2022-10-31T17:15:47;69.67;;;40.83;;
2105;SDS011;1059;52.548;13.408;2022-10-31T17:18:17;54.47;;;37.23;;
2105;SDS011;1059;52.548;13.408;2022-10-31T17:20:44;52.23;;;34.53;;
2105;SDS011;1059;52.548;13.408;2022-10-31T17:23:14;53.57;;;34.53;;
2105;SDS011;1059;52.548;13.408;2022-10-31T17:25:42;56.90;;;35.73;;
2105;SDS011;1059;52.548;13.408;2022-10-31T17:28:10;59.33;;;37.40;;
2105;SDS011;1059;52.548;13.408;2022-10-31T17:30:38;60.37;;;38.77;;
2105;SDS011;1059;52.548;13.408;2022-10-31T17:33:05;62.33;;;40.30;;
2105;SDS011;1059;52.548;13.408;2022-10-31T17:35:35;61.10;;;39.90;;
2105;SDS011;1059;52.548;13.408;2022-10-31T17:38:02;61.10;;;37.10;;
2105;SDS011;1059;52.548;13.408;2022-10-31T17:40:30;61.43;;;38.63;;
2105;SDS011;1059;52.548;13.408;2022-10-31T17:42:57;56.57;;;38.80;;
2105;SDS011;1059;52.548;13.408;2022-10-31T17:45:24;53.03;;;35.50;;
2105;SDS011;1059;52.548;13.408;2022-10-31T17:47:52;58.30;;;36.17;;
2105;SDS011;1059;52.548;13.408;2022-10-31T17:50:19;49.43;;;34.97;;
2105;SDS011;1059;52.548;13.408;2022-10-31T17:52:48;49.70;;;35.60;;
2105;SDS011;1059;52.548;13.408;2022-10-31T17:55:16;49.53;;;34.10;;
2105;SDS011;1059;52.548;13.408;2022-10-31T17:57:45;46.37;;;32.60;;
2105;SDS011;1059;52.548;13.408;2022-10-31T18:00:13;45.90;;;32.57;;
2105;SDS011;1059;52.548;13.408;2022-10-31T18:02:41;47.83;;;33.40;;
2105;SDS011;1059;52.548;13.408;2022-10-31T18:05:08;55.17;;;35.80;;
2105;SDS011;1059;52.548;13.408;2022-10-31T18:07:35;43.73;;;32.20;;
2105;SDS011;1059;52.548;13.408;2022-10-31T18:10:03;43.10;;;31.83;;
2105;SDS011;1059;52.548;13.408;2022-10-31T18:12:30;43.73;;;32.50;;
2105;SDS011;1059;52.548;13.408;2022-10-31T18:14:59;43.60;;;30.70;;
2105;SDS011;1059;52.548;13.408;2022-10-31T18:17:25;36.90;;;28.50;;
2105;SDS011;1059;52.548;13.408;2022-10-31T18:19:53;39.50;;;30.80;;
2105;SDS011;1059;52.548;13.408;2022-10-31T18:22:19;50.10;;;32.57;;
2105;SDS011;1059;52.548;13.408;2022-10-31T18:24:46;42.87;;;31.67;;
2105;SDS011;1059;52.548;13.408;2022-10-31T18:27:13;42.07;;;30.63;;
2105;SDS011;1059;52.548;13.408;2022-10-31T18:29:40;39.27;;;30.70;;
2105;SDS011;1059;52.548;13.408;2022-10-31T18:32:08;47.40;;;33.00;;
2105;SDS011;1059;52.548;13.408;2022-10-31T18:34:35;45.07;;;32.50;;
2105;SDS011;1059;52.548;13.408;2022-10-31T18:37:02;41.40;;;30.50;;
2105;SDS011;1059;52.548;13.408;2022-10-31T18:39:29;50.10;;;33.20;;
2105;SDS011;1059;52.548;13.408;2022-10-31T18:41:56;48.10;;;34.43;;
2105;SDS011;1059;52.548;13.408;2022-10-31T18:44:23;69.80;;;46.90;;
2105;SDS011;1059;52.548;13.408;2022-10-31T18:46:52;58.80;;;35.20;;
2105;SDS011;1059;52.548;13.408;2022-10-31T18:49:20;54.80;;;37.87;;
2105;SDS011;1059;52.548;13.408;2022-10-31T18:51:48;51.97;;;38.17;;
2105;SDS011;1059;52.548;13.408;2022-10-31T18:54:15;50.37;;;36.23;;
2105;SDS011;1059;52.548;13.408;2022-10-31T18:56:42;50.57;;;35.83;;
2105;SDS011;1059;52.548;13.408;2022-10-31T18:59:09;48.10;;;34.43;;
2105;SDS011;1059;52.548;13.408;2022-10-31T19:01:37;50.67;;;36.53;;
2105;SDS011;1059;52.548;13.408;2022-10-31T19:04:04;48.90;;;35.90;;
2105;SDS011;1059;52.548;13.408;2022-10-31T19:06:32;54.90;;;37.37;;
2105;SDS011;1059;52.548;13.408;2022-10-31T19:09:00;54.60;;;36.03;;
2105;SDS011;1059;52.548;13.408;2022-10-31T19:11:30;54.03;;;35.80;;
2105;SDS011;1059;52.548;13.408;2022-10-31T19:13:58;47.27;;;35.20;;
2105;SDS011;1059;52.548;13.408;2022-10-31T19:16:25;51.43;;;36.47;;
2105;SDS011;1059;52.548;13.408;2022-10-31T19:18:52;48.47;;;36.33;;
2105;SDS011;1059;52.548;13.408;2022-10-31T19:21:20;52.37;;;37.70;;
2105;SDS011;1059;52.548;13.408;2022-10-31T19:23:50;49.70;;;36.70;;
2105;SDS011;1059;52.548;13.408;2022-10-31T19:26:20;58.53;;;39.27;;
2105;SDS011;1059;52.548;13.408;2022-10-31T19:28:47;48.40;;;36.27;;
2105;SDS011;1059;52.548;13.408;2022-10-31T19:31:14;53.77;;;39.00;;
2105;SDS011;1059;52.548;13.408;2022-10-31T19:33:42;48.33;;;34.87;;
2105;SDS011;1059;52.548;13.408;2022-10-31T19:36:09;45.97;;;35.47;;
2105;SDS011;1059;52.548;13.408;2022-10-31T19:38:38;37.50;;;31.47;;
2105;SDS011;1059;52.548;13.408;2022-10-31T19:41:08;43.67;;;31.07;;
2105;SDS011;1059;52.548;13.408;2022-10-31T19:43:37;40.90;;;31.07;;
2105;SDS011;1059;52.548;13.408;2022-10-31T19:46:05;43.60;;;31.00;;
2105;SDS011;1059;52.548;13.408;2022-10-31T19:48:34;38.40;;;31.13;;
2105;SDS011;1059;52.548;13.408;2022-10-31T19:51:02;39.67;;;31.13;;
2105;SDS011;1059;52.548;13.408;2022-10-31T19:53:30;43.17;;;34.60;;
2105;SDS011;1059;52.548;13.408;2022-10-31T19:55:58;39.37;;;31.47;;
2105;SDS011;1059;52.548;13.408;2022-10-31T19:58:26;43.77;;;34.47;;
2105;SDS011;1059;52.548;13.408;2022-10-31T20:00:53;45.83;;;34.63;;
2105;SDS011;1059;52.548;13.408;2022-10-31T20:03:20;45.13;;;34.73;;
2105;SDS011;1059;52.548;13.408;2022-10-31T20:05:48;50.60;;;33.03;;
2105;SDS011;1059;52.548;13.408;2022-10-31T20:08:16;38.20;;;30.93;;
2105;SDS011;1059;52.548;13.408;2022-10-31T20:10:52;37.13;;;29.43;;
2105;SDS011;1059;52.548;13.408;2022-10-31T20:13:19;35.10;;;27.83;;
2105;SDS011;1059;52.548;13.408;2022-10-31T20:15:48;33.77;;;28.97;;
2105;SDS011;1059;52.548;13.408;2022-10-31T20:18:16;34.17;;;28.97;;
2105;SDS011;1059;52.548;13.408;2022-10-31T20:20:43;30.67;;;26.70;;
2105;SDS011;1059;52.548;13.408;2022-10-31T20:23:10;33.00;;;27.57;;
2105;SDS011;1059;52.548;13.408;2022-10-31T20:25:44;30.73;;;26.37;;
2105;SDS011;1059;52.548;13.408;2022-10-31T20:28:12;33.30;;;28.60;;
2105;SDS011;1059;52.548;13.408;2022-10-31T20:30:39;41.77;;;37.00;;
2105;SDS011;1059;52.548;13.408;2022-10-31T20:33:07;36.20;;;31.33;;
2105;SDS011;1059;52.548;13.408;2022-10-31T20:35:35;33.37;;;27.87;;
2105;SDS011;1059;52.548;13.408;2022-10-31T20:38:02;31.67;;;26.73;;
2105;SDS011;1059;52.548;13.408;2022-10-31T20:40:29;31.50;;;26.83;;
2105;SDS011;1059;52.548;13.408;2022-10-31T20:42:57;28.83;;;25.60;;
2105;SDS011;1059;52.548;13.408;2022-10-31T20:45:24;27.57;;;24.63;;
2105;SDS011;1059;52.548;13.408;2022-10-31T20:47:51;29.23;;;25.90;;
2105;SDS011;1059;52.548;13.408;2022-10-31T20:50:20;29.00;;;25.90;;
2105;SDS011;1059;52.548;13.408;2022-10-31T20:52:47;30.70;;;27.20;;
2105;SDS011;1059;52.548;13.408;2022-10-31T20:55:14;29.40;;;25.23;;
2105;SDS011;1059;52.548;13.408;2022-10-31T20:57:41;27.90;;;24.67;;
2105;SDS011;1059;52.548;13.408;2022-10-31T21:00:08;27.10;;;24.20;;
2105;SDS011;1059;52.548;13.408;2022-10-31T21:02:37;27.80;;;24.80;;
2105;SDS011;1059;52.548;13.408;2022-10-31T21:05:06;30.57;;;22.60;;
2105;SDS011;1059;52.548;13.408;2022-10-31T21:07:35;27.13;;;23.87;;
2105;SDS011;1059;52.548;13.408;2022-10-31T21:10:03;30.43;;;25.53;;
2105;SDS011;1059;52.548;13.408;2022-10-31T21:12:38;32.83;;;24.50;;
2105;SDS011;1059;52.548;13.408;2022-10-31T21:15:06;30.67;;;25.90;;